sensor_id;sensor_type;location;lat;lon;timestamp;temperature;humidity
77693;SHT31;66984;47.404;18.836;2023-04-28T00:00:00;6.97;61.69
77693;SHT31;66984;47.404;18.836;2023-04-28T00:01:03;6.95;61.47
77693;SHT31;66984;47.404;18.836;2023-04-28T00:02:06;6.93;61.63
77693;SHT31;66984;47.404;18.836;2023-04-28T00:03:09;6.96;61.49
77693;SHT31;66984;47.404;18.836;2023-04-28T00:04:12;6.88;62.08
77693;SHT31;66984;47.404;18.836;2023-04-28T00:05:17;6.91;61.87
77693;SHT31;66984;47.404;18.836;2023-04-28T00:06:20;6.93;61.43
77693;SHT31;66984;47.404;18.836;2023-04-28T00:07:23;6.91;61.67
77693;SHT31;66984;47.404;18.836;2023-04-28T00:08:25;6.92;61.97
77693;SHT31;66984;47.404;18.836;2023-04-28T00:09:28;6.91;61.89
77693;SHT31;66984;47.404;18.836;2023-04-28T00:10:32;6.89;61.65
77693;SHT31;66984;47.404;18.836;2023-04-28T00:11:36;6.92;61.46
77693;SHT31;66984;47.404;18.836;2023-04-28T00:12:40;6.89;61.44
77693;SHT31;66984;47.404;18.836;2023-04-28T00:13:43;6.91;61.56
77693;SHT31;66984;47.404;18.836;2023-04-28T00:14:46;6.93;60.67
77693;SHT31;66984;47.404;18.836;2023-04-28T00:15:49;6.83;60.14
77693;SHT31;66984;47.404;18.836;2023-04-28T00:16:54;6.76;59.69
77693;SHT31;66984;47.404;18.836;2023-04-28T00:18:00;6.73;60.90
77693;SHT31;66984;47.404;18.836;2023-04-28T00:19:03;6.69;60.80
77693;SHT31;66984;47.404;18.836;2023-04-28T00:20:06;6.68;60.77
77693;SHT31;66984;47.404;18.836;2023-04-28T00:21:09;6.71;60.61
77693;SHT31;66984;47.404;18.836;2023-04-28T00:22:12;6.68;60.94
77693;SHT31;66984;47.404;18.836;2023-04-28T00:23:15;6.62;61.28
77693;SHT31;66984;47.404;18.836;2023-04-28T00:24:18;6.68;61.26
77693;SHT31;66984;47.404;18.836;2023-04-28T00:25:21;6.64;61.17
77693;SHT31;66984;47.404;18.836;2023-04-28T00:26:24;6.68;60.96
77693;SHT31;66984;47.404;18.836;2023-04-28T00:27:27;6.65;60.85
77693;SHT31;66984;47.404;18.836;2023-04-28T00:28:30;6.68;60.82
77693;SHT31;66984;47.404;18.836;2023-04-28T00:29:35;6.67;61.37
77693;SHT31;66984;47.404;18.836;2023-04-28T00:30:39;6.69;61.14
77693;SHT31;66984;47.404;18.836;2023-04-28T00:31:43;6.71;60.73
77693;SHT31;66984;47.404;18.836;2023-04-28T00:32:46;6.69;60.71
77693;SHT31;66984;47.404;18.836;2023-04-28T00:33:49;6.68;62.07
77693;SHT31;66984;47.404;18.836;2023-04-28T00:34:52;6.67;61.83
77693;SHT31;66984;47.404;18.836;2023-04-28T00:35:59;6.62;61.62
77693;SHT31;66984;47.404;18.836;2023-04-28T00:37:03;6.61;61.79
77693;SHT31;66984;47.404;18.836;2023-04-28T00:38:06;6.58;61.66
77693;SHT31;66984;47.404;18.836;2023-04-28T00:39:09;6.52;62.48
77693;SHT31;66984;47.404;18.836;2023-04-28T00:40:12;6.54;62.31
77693;SHT31;66984;47.404;18.836;2023-04-28T00:41:15;6.54;62.31
77693;SHT31;66984;47.404;18.836;2023-04-28T00:42:18;6.55;62.17
77693;SHT31;66984;47.404;18.836;2023-04-28T00:43:21;6.56;62.08
77693;SHT31;66984;47.404;18.836;2023-04-28T00:44:23;6.56;62.26
77693;SHT31;66984;47.404;18.836;2023-04-28T00:45:26;6.64;62.49
77693;SHT31;66984;47.404;18.836;2023-04-28T00:46:30;6.61;62.06
77693;SHT31;66984;47.404;18.836;2023-04-28T00:47:33;6.64;62.02
77693;SHT31;66984;47.404;18.836;2023-04-28T00:48:38;6.59;62.62
77693;SHT31;66984;47.404;18.836;2023-04-28T00:49:41;6.58;62.44
77693;SHT31;66984;47.404;18.836;2023-04-28T00:50:45;6.55;62.69
77693;SHT31;66984;47.404;18.836;2023-04-28T00:51:49;6.55;62.46
77693;SHT31;66984;47.404;18.836;2023-04-28T00:52:52;6.58;62.86
77693;SHT31;66984;47.404;18.836;2023-04-28T00:53:55;6.56;62.83
77693;SHT31;66984;47.404;18.836;2023-04-28T00:54:58;6.56;62.64
77693;SHT31;66984;47.404;18.836;2023-04-28T00:56:01;6.58;62.65
77693;SHT31;66984;47.404;18.836;2023-04-28T00:57:09;6.56;62.41
77693;SHT31;66984;47.404;18.836;2023-04-28T00:58:12;6.58;62.89
77693;SHT31;66984;47.404;18.836;2023-04-28T00:59:15;6.55;62.60
77693;SHT31;66984;47.404;18.836;2023-04-28T01:00:18;6.52;62.59
77693;SHT31;66984;47.404;18.836;2023-04-28T01:01:21;6.51;62.42
77693;SHT31;66984;47.404;18.836;2023-04-28T01:02:25;6.54;62.30
77693;SHT31;66984;47.404;18.836;2023-04-28T01:03:29;6.51;62.25
77693;SHT31;66984;47.404;18.836;2023-04-28T01:04:32;6.51;62.22
77693;SHT31;66984;47.404;18.836;2023-04-28T01:05:35;6.52;62.28
77693;SHT31;66984;47.404;18.836;2023-04-28T01:06:40;6.51;61.97
77693;SHT31;66984;47.404;18.836;2023-04-28T01:07:44;6.45;62.00
77693;SHT31;66984;47.404;18.836;2023-04-28T01:08:48;6.44;62.16
77693;SHT31;66984;47.404;18.836;2023-04-28T01:09:52;6.44;61.81
77693;SHT31;66984;47.404;18.836;2023-04-28T01:10:55;6.45;62.13
77693;SHT31;66984;47.404;18.836;2023-04-28T01:11:58;6.44;61.58
77693;SHT31;66984;47.404;18.836;2023-04-28T01:13:01;6.37;61.86
77693;SHT31;66984;47.404;18.836;2023-04-28T01:14:04;6.37;61.57
77693;SHT31;66984;47.404;18.836;2023-04-28T01:15:14;6.34;61.57
77693;SHT31;66984;47.404;18.836;2023-04-28T01:16:17;6.31;62.03
77693;SHT31;66984;47.404;18.836;2023-04-28T01:17:20;6.28;62.31
77693;SHT31;66984;47.404;18.836;2023-04-28T01:18:24;6.28;62.21
77693;SHT31;66984;47.404;18.836;2023-04-28T01:19:27;6.24;62.41
77693;SHT31;66984;47.404;18.836;2023-04-28T01:20:31;6.24;63.05
77693;SHT31;66984;47.404;18.836;2023-04-28T01:21:34;6.20;62.82
77693;SHT31;66984;47.404;18.836;2023-04-28T01:22:37;6.21;62.75
77693;SHT31;66984;47.404;18.836;2023-04-28T01:23:39;6.21;62.56
77693;SHT31;66984;47.404;18.836;2023-04-28T01:24:43;6.20;62.46
77693;SHT31;66984;47.404;18.836;2023-04-28T01:25:46;6.18;62.72
77693;SHT31;66984;47.404;18.836;2023-04-28T01:26:49;6.13;63.20
77693;SHT31;66984;47.404;18.836;2023-04-28T01:27:52;6.16;63.09
77693;SHT31;66984;47.404;18.836;2023-04-28T01:28:55;6.09;62.86
77693;SHT31;66984;47.404;18.836;2023-04-28T01:29:57;6.04;63.30
77693;SHT31;66984;47.404;18.836;2023-04-28T01:31:00;6.02;63.54
77693;SHT31;66984;47.404;18.836;2023-04-28T01:32:03;6.00;63.32
77693;SHT31;66984;47.404;18.836;2023-04-28T01:33:06;5.97;62.87
77693;SHT31;66984;47.404;18.836;2023-04-28T01:34:09;5.96;63.11
77693;SHT31;66984;47.404;18.836;2023-04-28T01:35:12;5.89;63.36
77693;SHT31;66984;47.404;18.836;2023-04-28T01:36:15;5.89;63.25
77693;SHT31;66984;47.404;18.836;2023-04-28T01:37:18;5.92;63.14
77693;SHT31;66984;47.404;18.836;2023-04-28T01:38:21;5.87;63.23
77693;SHT31;66984;47.404;18.836;2023-04-28T01:39:24;5.83;63.32
77693;SHT31;66984;47.404;18.836;2023-04-28T01:40:27;5.83;63.37
77693;SHT31;66984;47.404;18.836;2023-04-28T01:41:30;5.82;63.25
77693;SHT31;66984;47.404;18.836;2023-04-28T01:42:35;5.79;63.70
77693;SHT31;66984;47.404;18.836;2023-04-28T01:43:38;5.76;63.40
77693;SHT31;66984;47.404;18.836;2023-04-28T01:44:41;5.72;63.28
77693;SHT31;66984;47.404;18.836;2023-04-28T01:45:44;5.76;62.90
77693;SHT31;66984;47.404;18.836;2023-04-28T01:46:47;5.72;62.64
77693;SHT31;66984;47.404;18.836;2023-04-28T01:47:50;5.72;62.86
77693;SHT31;66984;47.404;18.836;2023-04-28T01:48:53;5.72;62.98
77693;SHT31;66984;47.404;18.836;2023-04-28T01:49:56;5.70;63.60
77693;SHT31;66984;47.404;18.836;2023-04-28T01:50:59;5.67;63.96
77693;SHT31;66984;47.404;18.836;2023-04-28T01:52:02;5.65;63.94
77693;SHT31;66984;47.404;18.836;2023-04-28T01:53:05;5.60;64.61
77693;SHT31;66984;47.404;18.836;2023-04-28T01:54:08;5.60;64.03
77693;SHT31;66984;47.404;18.836;2023-04-28T01:55:11;5.60;63.92
77693;SHT31;66984;47.404;18.836;2023-04-28T01:56:14;5.58;63.43
77693;SHT31;66984;47.404;18.836;2023-04-28T01:57:17;5.59;63.44
77693;SHT31;66984;47.404;18.836;2023-04-28T01:58:23;5.58;62.96
77693;SHT31;66984;47.404;18.836;2023-04-28T01:59:26;5.58;62.93
77693;SHT31;66984;47.404;18.836;2023-04-28T02:00:29;5.62;62.85
77693;SHT31;66984;47.404;18.836;2023-04-28T02:01:32;5.60;62.90
77693;SHT31;66984;47.404;18.836;2023-04-28T02:02:35;5.62;62.84
77693;SHT31;66984;47.404;18.836;2023-04-28T02:03:38;5.60;62.88
77693;SHT31;66984;47.404;18.836;2023-04-28T02:04:42;5.65;62.78
77693;SHT31;66984;47.404;18.836;2023-04-28T02:05:45;5.65;62.89
77693;SHT31;66984;47.404;18.836;2023-04-28T02:06:48;5.66;62.82
77693;SHT31;66984;47.404;18.836;2023-04-28T02:07:51;5.65;63.00
77693;SHT31;66984;47.404;18.836;2023-04-28T02:08:53;5.67;63.41
77693;SHT31;66984;47.404;18.836;2023-04-28T02:09:56;5.67;63.32
77693;SHT31;66984;47.404;18.836;2023-04-28T02:10:59;5.65;63.53
77693;SHT31;66984;47.404;18.836;2023-04-28T02:12:03;5.62;63.82
77693;SHT31;66984;47.404;18.836;2023-04-28T02:13:06;5.63;63.58
77693;SHT31;66984;47.404;18.836;2023-04-28T02:14:09;5.65;63.44
77693;SHT31;66984;47.404;18.836;2023-04-28T02:15:12;5.58;63.80
77693;SHT31;66984;47.404;18.836;2023-04-28T02:16:15;5.55;63.90
77693;SHT31;66984;47.404;18.836;2023-04-28T02:17:18;5.52;63.74
77693;SHT31;66984;47.404;18.836;2023-04-28T02:18:21;5.54;63.60
77693;SHT31;66984;47.404;18.836;2023-04-28T02:19:24;5.54;63.70
77693;SHT31;66984;47.404;18.836;2023-04-28T02:20:27;5.51;63.54
77693;SHT31;66984;47.404;18.836;2023-04-28T02:21:33;5.46;64.05
77693;SHT31;66984;47.404;18.836;2023-04-28T02:22:36;5.42;64.23
77693;SHT31;66984;47.404;18.836;2023-04-28T02:23:39;5.44;63.76
77693;SHT31;66984;47.404;18.836;2023-04-28T02:24:42;5.51;63.62
77693;SHT31;66984;47.404;18.836;2023-04-28T02:25:45;5.49;64.08
77693;SHT31;66984;47.404;18.836;2023-04-28T02:26:48;5.51;63.73
77693;SHT31;66984;47.404;18.836;2023-04-28T02:27:50;5.54;63.34
77693;SHT31;66984;47.404;18.836;2023-04-28T02:28:54;5.51;63.85
77693;SHT31;66984;47.404;18.836;2023-04-28T02:29:57;5.48;63.56
77693;SHT31;66984;47.404;18.836;2023-04-28T02:31:07;5.46;63.39
77693;SHT31;66984;47.404;18.836;2023-04-28T02:32:10;5.46;63.17
77693;SHT31;66984;47.404;18.836;2023-04-28T02:33:13;5.52;63.06
77693;SHT31;66984;47.404;18.836;2023-04-28T02:34:16;5.54;62.86
77693;SHT31;66984;47.404;18.836;2023-04-28T02:35:19;5.54;62.77
77693;SHT31;66984;47.404;18.836;2023-04-28T02:36:22;5.55;62.57
77693;SHT31;66984;47.404;18.836;2023-04-28T02:37:24;5.51;63.00
77693;SHT31;66984;47.404;18.836;2023-04-28T02:38:28;5.48;63.47
77693;SHT31;66984;47.404;18.836;2023-04-28T02:39:30;5.46;63.65
77693;SHT31;66984;47.404;18.836;2023-04-28T02:40:34;5.42;63.58
77693;SHT31;66984;47.404;18.836;2023-04-28T02:41:37;5.41;63.70
77693;SHT31;66984;47.404;18.836;2023-04-28T02:42:40;5.45;63.82
77693;SHT31;66984;47.404;18.836;2023-04-28T02:43:43;5.44;63.63
77693;SHT31;66984;47.404;18.836;2023-04-28T02:44:46;5.38;63.91
77693;SHT31;66984;47.404;18.836;2023-04-28T02:45:48;5.36;63.50
77693;SHT31;66984;47.404;18.836;2023-04-28T02:46:51;5.32;63.82
77693;SHT31;66984;47.404;18.836;2023-04-28T02:47:54;5.34;63.87
77693;SHT31;66984;47.404;18.836;2023-04-28T02:48:57;5.31;63.56
77693;SHT31;66984;47.404;18.836;2023-04-28T02:50:00;5.30;63.82
77693;SHT31;66984;47.404;18.836;2023-04-28T02:51:03;5.30;63.83
77693;SHT31;66984;47.404;18.836;2023-04-28T02:52:06;5.27;63.47
77693;SHT31;66984;47.404;18.836;2023-04-28T02:53:09;5.30;63.38
77693;SHT31;66984;47.404;18.836;2023-04-28T02:54:12;5.31;63.31
77693;SHT31;66984;47.404;18.836;2023-04-28T02:55:15;5.30;63.58
77693;SHT31;66984;47.404;18.836;2023-04-28T02:56:25;5.31;63.70
77693;SHT31;66984;47.404;18.836;2023-04-28T02:57:28;5.25;64.28
77693;SHT31;66984;47.404;18.836;2023-04-28T02:58:31;5.20;64.74
77693;SHT31;66984;47.404;18.836;2023-04-28T02:59:34;5.15;64.63
77693;SHT31;66984;47.404;18.836;2023-04-28T03:00:37;5.17;64.50
77693;SHT31;66984;47.404;18.836;2023-04-28T03:01:40;5.20;64.55
77693;SHT31;66984;47.404;18.836;2023-04-28T03:02:43;5.21;64.15
77693;SHT31;66984;47.404;18.836;2023-04-28T03:03:46;5.23;64.03
77693;SHT31;66984;47.404;18.836;2023-04-28T03:04:49;5.20;64.11
77693;SHT31;66984;47.404;18.836;2023-04-28T03:05:52;5.25;63.85
77693;SHT31;66984;47.404;18.836;2023-04-28T03:06:55;5.25;63.58
77693;SHT31;66984;47.404;18.836;2023-04-28T03:07:58;5.27;63.38
77693;SHT31;66984;47.404;18.836;2023-04-28T03:09:02;5.30;63.29
77693;SHT31;66984;47.404;18.836;2023-04-28T03:10:06;5.28;63.18
77693;SHT31;66984;47.404;18.836;2023-04-28T03:11:09;5.25;63.72
77693;SHT31;66984;47.404;18.836;2023-04-28T03:12:12;5.24;63.87
77693;SHT31;66984;47.404;18.836;2023-04-28T03:13:15;5.24;63.58
77693;SHT31;66984;47.404;18.836;2023-04-28T03:14:18;5.24;63.58
77693;SHT31;66984;47.404;18.836;2023-04-28T03:15:21;5.21;64.45
77693;SHT31;66984;47.404;18.836;2023-04-28T03:16:24;5.18;64.70
77693;SHT31;66984;47.404;18.836;2023-04-28T03:17:27;5.13;64.78
77693;SHT31;66984;47.404;18.836;2023-04-28T03:18:30;5.13;64.66
77693;SHT31;66984;47.404;18.836;2023-04-28T03:19:33;5.08;64.79
77693;SHT31;66984;47.404;18.836;2023-04-28T03:20:35;5.04;64.83
77693;SHT31;66984;47.404;18.836;2023-04-28T03:21:38;5.10;64.65
77693;SHT31;66984;47.404;18.836;2023-04-28T03:22:42;5.13;64.69
77693;SHT31;66984;47.404;18.836;2023-04-28T03:23:44;5.13;64.79
77693;SHT31;66984;47.404;18.836;2023-04-28T03:24:48;5.15;64.42
77693;SHT31;66984;47.404;18.836;2023-04-28T03:25:50;5.15;63.94
77693;SHT31;66984;47.404;18.836;2023-04-28T03:26:54;5.17;63.71
77693;SHT31;66984;47.404;18.836;2023-04-28T03:27:57;5.20;63.64
77693;SHT31;66984;47.404;18.836;2023-04-28T03:29:00;5.18;63.64
77693;SHT31;66984;47.404;18.836;2023-04-28T03:30:03;5.15;64.21
77693;SHT31;66984;47.404;18.836;2023-04-28T03:31:06;5.11;64.74
77693;SHT31;66984;47.404;18.836;2023-04-28T03:32:09;5.11;64.41
77693;SHT31;66984;47.404;18.836;2023-04-28T03:33:12;5.15;64.14
77693;SHT31;66984;47.404;18.836;2023-04-28T03:34:15;5.18;64.05
77693;SHT31;66984;47.404;18.836;2023-04-28T03:35:18;5.17;63.89
77693;SHT31;66984;47.404;18.836;2023-04-28T03:36:21;5.15;63.97
77693;SHT31;66984;47.404;18.836;2023-04-28T03:37:24;5.08;64.80
77693;SHT31;66984;47.404;18.836;2023-04-28T03:38:27;5.07;65.01
77693;SHT31;66984;47.404;18.836;2023-04-28T03:39:30;5.08;64.93
77693;SHT31;66984;47.404;18.836;2023-04-28T03:40:33;5.10;65.25
77693;SHT31;66984;47.404;18.836;2023-04-28T03:41:35;5.08;64.95
77693;SHT31;66984;47.404;18.836;2023-04-28T03:42:38;5.04;65.38
77693;SHT31;66984;47.404;18.836;2023-04-28T03:43:41;5.05;65.05
77693;SHT31;66984;47.404;18.836;2023-04-28T03:44:44;5.07;64.75
77693;SHT31;66984;47.404;18.836;2023-04-28T03:45:47;5.11;64.58
77693;SHT31;66984;47.404;18.836;2023-04-28T03:46:51;5.13;64.34
77693;SHT31;66984;47.404;18.836;2023-04-28T03:47:54;5.15;64.19
77693;SHT31;66984;47.404;18.836;2023-04-28T03:48:56;5.14;64.23
77693;SHT31;66984;47.404;18.836;2023-04-28T03:49:59;5.13;64.42
77693;SHT31;66984;47.404;18.836;2023-04-28T03:51:02;5.13;64.54
77693;SHT31;66984;47.404;18.836;2023-04-28T03:52:05;5.10;64.88
77693;SHT31;66984;47.404;18.836;2023-04-28T03:53:08;5.11;65.01
77693;SHT31;66984;47.404;18.836;2023-04-28T03:54:11;5.11;64.85
77693;SHT31;66984;47.404;18.836;2023-04-28T03:55:15;5.15;64.85
77693;SHT31;66984;47.404;18.836;2023-04-28T03:56:18;5.14;65.23
77693;SHT31;66984;47.404;18.836;2023-04-28T03:57:21;5.17;64.92
77693;SHT31;66984;47.404;18.836;2023-04-28T03:58:23;5.20;64.83
77693;SHT31;66984;47.404;18.836;2023-04-28T03:59:27;5.20;64.54
77693;SHT31;66984;47.404;18.836;2023-04-28T04:00:30;5.20;64.43
77693;SHT31;66984;47.404;18.836;2023-04-28T04:01:32;5.23;64.50
77693;SHT31;66984;47.404;18.836;2023-04-28T04:02:35;5.20;65.51
77693;SHT31;66984;47.404;18.836;2023-04-28T04:03:38;5.18;65.84
77693;SHT31;66984;47.404;18.836;2023-04-28T04:04:42;5.14;65.66
77693;SHT31;66984;47.404;18.836;2023-04-28T04:05:46;5.17;65.36
77693;SHT31;66984;47.404;18.836;2023-04-28T04:06:49;5.18;65.08
77693;SHT31;66984;47.404;18.836;2023-04-28T04:07:52;5.11;65.37
77693;SHT31;66984;47.404;18.836;2023-04-28T04:08:55;5.08;65.85
77693;SHT31;66984;47.404;18.836;2023-04-28T04:09:58;5.01;66.16
77693;SHT31;66984;47.404;18.836;2023-04-28T04:11:04;5.07;66.06
77693;SHT31;66984;47.404;18.836;2023-04-28T04:12:07;5.04;65.89
77693;SHT31;66984;47.404;18.836;2023-04-28T04:13:10;5.05;65.91
77693;SHT31;66984;47.404;18.836;2023-04-28T04:14:13;5.10;65.82
77693;SHT31;66984;47.404;18.836;2023-04-28T04:15:16;5.13;66.16
77693;SHT31;66984;47.404;18.836;2023-04-28T04:16:19;5.14;65.91
77693;SHT31;66984;47.404;18.836;2023-04-28T04:17:23;5.15;65.93
77693;SHT31;66984;47.404;18.836;2023-04-28T04:18:26;5.18;65.95
77693;SHT31;66984;47.404;18.836;2023-04-28T04:19:30;5.17;66.21
77693;SHT31;66984;47.404;18.836;2023-04-28T04:20:32;5.24;66.17
77693;SHT31;66984;47.404;18.836;2023-04-28T04:21:35;5.25;65.98
77693;SHT31;66984;47.404;18.836;2023-04-28T04:22:38;5.25;66.58
77693;SHT31;66984;47.404;18.836;2023-04-28T04:23:41;5.30;66.13
77693;SHT31;66984;47.404;18.836;2023-04-28T04:24:44;5.32;66.42
77693;SHT31;66984;47.404;18.836;2023-04-28T04:25:47;5.35;66.54
77693;SHT31;66984;47.404;18.836;2023-04-28T04:26:50;5.35;66.01
77693;SHT31;66984;47.404;18.836;2023-04-28T04:27:53;5.36;65.60
77693;SHT31;66984;47.404;18.836;2023-04-28T04:28:56;5.39;65.53
77693;SHT31;66984;47.404;18.836;2023-04-28T04:29:59;5.44;65.63
77693;SHT31;66984;47.404;18.836;2023-04-28T04:31:02;5.41;65.62
77693;SHT31;66984;47.404;18.836;2023-04-28T04:32:05;5.44;66.42
77693;SHT31;66984;47.404;18.836;2023-04-28T04:33:08;5.45;67.03
77693;SHT31;66984;47.404;18.836;2023-04-28T04:34:11;5.49;66.99
77693;SHT31;66984;47.404;18.836;2023-04-28T04:35:14;5.52;66.88
77693;SHT31;66984;47.404;18.836;2023-04-28T04:36:18;5.51;66.56
77693;SHT31;66984;47.404;18.836;2023-04-28T04:37:21;5.55;66.26
77693;SHT31;66984;47.404;18.836;2023-04-28T04:38:24;5.60;66.39
77693;SHT31;66984;47.404;18.836;2023-04-28T04:39:27;5.65;66.30
77693;SHT31;66984;47.404;18.836;2023-04-28T04:40:30;5.66;66.11
77693;SHT31;66984;47.404;18.836;2023-04-28T04:41:33;5.63;65.96
77693;SHT31;66984;47.404;18.836;2023-04-28T04:42:36;5.58;65.85
77693;SHT31;66984;47.404;18.836;2023-04-28T04:43:39;5.62;66.10
77693;SHT31;66984;47.404;18.836;2023-04-28T04:44:42;5.67;66.80
77693;SHT31;66984;47.404;18.836;2023-04-28T04:45:45;5.73;66.46
77693;SHT31;66984;47.404;18.836;2023-04-28T04:46:47;5.77;66.42
77693;SHT31;66984;47.404;18.836;2023-04-28T04:47:51;5.80;66.19
77693;SHT31;66984;47.404;18.836;2023-04-28T04:48:54;5.90;66.16
77693;SHT31;66984;47.404;18.836;2023-04-28T04:49:57;5.97;65.74
77693;SHT31;66984;47.404;18.836;2023-04-28T04:51:00;6.06;65.84
77693;SHT31;66984;47.404;18.836;2023-04-28T04:52:03;6.10;65.99
77693;SHT31;66984;47.404;18.836;2023-04-28T04:53:08;6.17;66.30
77693;SHT31;66984;47.404;18.836;2023-04-28T04:54:16;6.23;66.79
77693;SHT31;66984;47.404;18.836;2023-04-28T04:55:19;6.33;66.69
77693;SHT31;66984;47.404;18.836;2023-04-28T04:56:22;6.35;66.77
77693;SHT31;66984;47.404;18.836;2023-04-28T04:57:25;6.46;66.56
77693;SHT31;66984;47.404;18.836;2023-04-28T04:58:28;6.52;66.36
77693;SHT31;66984;47.404;18.836;2023-04-28T04:59:31;6.56;66.46
77693;SHT31;66984;47.404;18.836;2023-04-28T05:00:34;6.62;66.88
77693;SHT31;66984;47.404;18.836;2023-04-28T05:01:37;6.71;66.59
77693;SHT31;66984;47.404;18.836;2023-04-28T05:02:40;6.78;66.23
77693;SHT31;66984;47.404;18.836;2023-04-28T05:03:43;6.79;65.68
77693;SHT31;66984;47.404;18.836;2023-04-28T05:04:46;6.86;65.29
77693;SHT31;66984;47.404;18.836;2023-04-28T05:05:49;6.83;64.66
77693;SHT31;66984;47.404;18.836;2023-04-28T05:06:52;6.89;64.92
77693;SHT31;66984;47.404;18.836;2023-04-28T05:07:55;6.95;65.33
77693;SHT31;66984;47.404;18.836;2023-04-28T05:08:58;7.02;65.22
77693;SHT31;66984;47.404;18.836;2023-04-28T05:10:01;7.04;65.15
77693;SHT31;66984;47.404;18.836;2023-04-28T05:11:04;7.13;65.10
77693;SHT31;66984;47.404;18.836;2023-04-28T05:12:07;7.23;64.75
77693;SHT31;66984;47.404;18.836;2023-04-28T05:13:10;7.28;64.51
77693;SHT31;66984;47.404;18.836;2023-04-28T05:14:13;7.35;64.82
77693;SHT31;66984;47.404;18.836;2023-04-28T05:15:17;7.44;65.01
77693;SHT31;66984;47.404;18.836;2023-04-28T05:16:20;7.50;64.95
77693;SHT31;66984;47.404;18.836;2023-04-28T05:17:23;7.52;64.71
77693;SHT31;66984;47.404;18.836;2023-04-28T05:18:26;7.61;64.52
77693;SHT31;66984;47.404;18.836;2023-04-28T05:19:29;7.67;64.30
77693;SHT31;66984;47.404;18.836;2023-04-28T05:20:32;7.71;63.90
77693;SHT31;66984;47.404;18.836;2023-04-28T05:21:35;7.78;63.35
77693;SHT31;66984;47.404;18.836;2023-04-28T05:22:38;7.81;63.01
77693;SHT31;66984;47.404;18.836;2023-04-28T05:23:40;7.89;62.79
77693;SHT31;66984;47.404;18.836;2023-04-28T05:24:43;7.91;63.16
77693;SHT31;66984;47.404;18.836;2023-04-28T05:25:46;7.93;63.18
77693;SHT31;66984;47.404;18.836;2023-04-28T05:26:50;7.99;63.09
77693;SHT31;66984;47.404;18.836;2023-04-28T05:27:54;8.03;63.20
77693;SHT31;66984;47.404;18.836;2023-04-28T05:28:57;8.12;63.27
77693;SHT31;66984;47.404;18.836;2023-04-28T05:29:59;8.16;63.24
77693;SHT31;66984;47.404;18.836;2023-04-28T05:31:02;8.26;63.08
77693;SHT31;66984;47.404;18.836;2023-04-28T05:32:05;8.28;63.23
77693;SHT31;66984;47.404;18.836;2023-04-28T05:33:08;8.34;63.24
77693;SHT31;66984;47.404;18.836;2023-04-28T05:34:11;8.40;63.01
77693;SHT31;66984;47.404;18.836;2023-04-28T05:35:14;8.47;62.83
77693;SHT31;66984;47.404;18.836;2023-04-28T05:36:17;8.51;62.73
77693;SHT31;66984;47.404;18.836;2023-04-28T05:37:20;8.54;62.89
77693;SHT31;66984;47.404;18.836;2023-04-28T05:38:23;8.61;62.71
77693;SHT31;66984;47.404;18.836;2023-04-28T05:39:26;8.65;62.72
77693;SHT31;66984;47.404;18.836;2023-04-28T05:40:29;8.70;62.60
77693;SHT31;66984;47.404;18.836;2023-04-28T05:41:34;8.75;62.67
77693;SHT31;66984;47.404;18.836;2023-04-28T05:42:37;8.79;62.87
77693;SHT31;66984;47.404;18.836;2023-04-28T05:43:40;8.87;62.91
77693;SHT31;66984;47.404;18.836;2023-04-28T05:44:43;8.92;62.49
77693;SHT31;66984;47.404;18.836;2023-04-28T05:45:46;8.99;62.28
77693;SHT31;66984;47.404;18.836;2023-04-28T05:46:49;9.02;61.89
77693;SHT31;66984;47.404;18.836;2023-04-28T05:47:52;9.08;61.75
77693;SHT31;66984;47.404;18.836;2023-04-28T05:48:55;9.15;61.82
77693;SHT31;66984;47.404;18.836;2023-04-28T05:49:58;9.20;61.95
77693;SHT31;66984;47.404;18.836;2023-04-28T05:51:01;9.26;62.00
77693;SHT31;66984;47.404;18.836;2023-04-28T05:52:04;9.28;62.06
77693;SHT31;66984;47.404;18.836;2023-04-28T05:53:07;9.36;62.24
77693;SHT31;66984;47.404;18.836;2023-04-28T05:54:09;9.40;62.30
77693;SHT31;66984;47.404;18.836;2023-04-28T05:55:12;9.46;62.04
77693;SHT31;66984;47.404;18.836;2023-04-28T05:56:15;9.51;61.63
77693;SHT31;66984;47.404;18.836;2023-04-28T05:57:18;9.58;61.66
77693;SHT31;66984;47.404;18.836;2023-04-28T05:58:21;9.63;61.64
77693;SHT31;66984;47.404;18.836;2023-04-28T05:59:24;9.70;61.64
77693;SHT31;66984;47.404;18.836;2023-04-28T06:00:27;9.76;61.63
77693;SHT31;66984;47.404;18.836;2023-04-28T06:01:31;9.80;61.64
77693;SHT31;66984;47.404;18.836;2023-04-28T06:02:34;9.84;61.49
77693;SHT31;66984;47.404;18.836;2023-04-28T06:03:38;9.88;61.64
77693;SHT31;66984;47.404;18.836;2023-04-28T06:04:44;9.93;61.60
77693;SHT31;66984;47.404;18.836;2023-04-28T06:05:47;10.05;61.59
77693;SHT31;66984;47.404;18.836;2023-04-28T06:06:51;10.09;61.41
77693;SHT31;66984;47.404;18.836;2023-04-28T06:07:54;10.14;61.26
77693;SHT31;66984;47.404;18.836;2023-04-28T06:08:57;10.21;61.02
77693;SHT31;66984;47.404;18.836;2023-04-28T06:10:00;10.29;60.86
77693;SHT31;66984;47.404;18.836;2023-04-28T06:11:04;10.29;61.40
77693;SHT31;66984;47.404;18.836;2023-04-28T06:12:07;10.35;61.36
77693;SHT31;66984;47.404;18.836;2023-04-28T06:13:10;10.42;61.14
77693;SHT31;66984;47.404;18.836;2023-04-28T06:14:15;10.50;60.97
77693;SHT31;66984;47.404;18.836;2023-04-28T06:15:19;10.55;60.74
77693;SHT31;66984;47.404;18.836;2023-04-28T06:16:22;10.62;60.04
77693;SHT31;66984;47.404;18.836;2023-04-28T06:17:25;10.67;59.75
77693;SHT31;66984;47.404;18.836;2023-04-28T06:18:29;10.72;59.33
77693;SHT31;66984;47.404;18.836;2023-04-28T06:19:34;10.74;58.84
77693;SHT31;66984;47.404;18.836;2023-04-28T06:20:37;10.73;59.08
77693;SHT31;66984;47.404;18.836;2023-04-28T06:21:40;10.76;59.43
77693;SHT31;66984;47.404;18.836;2023-04-28T06:22:43;10.80;59.50
77693;SHT31;66984;47.404;18.836;2023-04-28T06:23:46;10.89;59.41
77693;SHT31;66984;47.404;18.836;2023-04-28T06:24:49;10.99;59.38
77693;SHT31;66984;47.404;18.836;2023-04-28T06:25:52;11.04;59.34
77693;SHT31;66984;47.404;18.836;2023-04-28T06:26:55;11.11;59.21
77693;SHT31;66984;47.404;18.836;2023-04-28T06:27:58;11.17;59.05
77693;SHT31;66984;47.404;18.836;2023-04-28T06:29:00;11.18;58.72
77693;SHT31;66984;47.404;18.836;2023-04-28T06:30:04;11.20;57.80
77693;SHT31;66984;47.404;18.836;2023-04-28T06:31:07;11.24;56.74
77693;SHT31;66984;47.404;18.836;2023-04-28T06:32:10;11.31;56.98
77693;SHT31;66984;47.404;18.836;2023-04-28T06:33:13;11.34;54.31
77693;SHT31;66984;47.404;18.836;2023-04-28T06:34:16;11.34;51.19
77693;SHT31;66984;47.404;18.836;2023-04-28T06:35:19;11.42;50.20
77693;SHT31;66984;47.404;18.836;2023-04-28T06:36:22;11.45;49.86
77693;SHT31;66984;47.404;18.836;2023-04-28T06:37:25;11.45;48.84
77693;SHT31;66984;47.404;18.836;2023-04-28T06:38:28;11.50;49.17